sensor_id;sensor_type;location;lat;lon;timestamp;P1;durP1;ratioP1;P2;durP2;ratioP2
78224;SDS011;67498;53.650;10.090;2023-07-28T00:01:32;5.73;;;2.40;;
78224;SDS011;67498;53.650;10.090;2023-07-28T00:03:57;5.20;;;2.10;;
78224;SDS011;67498;53.650;10.090;2023-07-28T00:06:23;5.57;;;1.97;;
78224;SDS011;67498;53.650;10.090;2023-07-28T00:08:48;6.30;;;2.30;;
78224;SDS011;67498;53.650;10.090;2023-07-28T00:11:14;5.97;;;2.60;;
78224;SDS011;67498;53.650;10.090;2023-07-28T00:13:40;5.37;;;1.73;;
78224;SDS011;67498;53.650;10.090;2023-07-28T00:16:07;5.65;;;2.03;;
78224;SDS011;67498;53.650;10.090;2023-07-28T00:18:33;5.35;;;2.08;;
78224;SDS011;67498;53.650;10.090;2023-07-28T00:20:59;6.23;;;2.10;;
78224;SDS011;67498;53.650;10.090;2023-07-28T00:23:24;6.70;;;2.30;;
78224;SDS011;67498;53.650;10.090;2023-07-28T00:25:49;5.20;;;2.05;;
78224;SDS011;67498;53.650;10.090;2023-07-28T00:28:15;4.77;;;1.77;;
78224;SDS011;67498;53.650;10.090;2023-07-28T00:30:40;5.80;;;1.83;;
78224;SDS011;67498;53.650;10.090;2023-07-28T00:33:05;5.30;;;2.10;;
78224;SDS011;67498;53.650;10.090;2023-07-28T00:35:31;5.80;;;2.17;;
78224;SDS011;67498;53.650;10.090;2023-07-28T00:37:57;6.10;;;2.13;;
78224;SDS011;67498;53.650;10.090;2023-07-28T00:40:22;5.57;;;2.27;;
78224;SDS011;67498;53.650;10.090;2023-07-28T00:42:47;6.00;;;2.17;;
78224;SDS011;67498;53.650;10.090;2023-07-28T00:45:13;4.53;;;1.97;;
78224;SDS011;67498;53.650;10.090;2023-07-28T00:47:38;6.03;;;2.27;;
78224;SDS011;67498;53.650;10.090;2023-07-28T00:50:04;9.85;;;2.10;;
78224;SDS011;67498;53.650;10.090;2023-07-28T00:52:30;6.38;;;2.10;;
78224;SDS011;67498;53.650;10.090;2023-07-28T00:54:55;5.90;;;2.23;;
78224;SDS011;67498;53.650;10.090;2023-07-28T00:57:20;9.77;;;2.13;;
78224;SDS011;67498;53.650;10.090;2023-07-28T00:59:46;5.93;;;2.30;;
78224;SDS011;67498;53.650;10.090;2023-07-28T01:02:12;4.37;;;1.50;;
78224;SDS011;67498;53.650;10.090;2023-07-28T01:04:37;6.15;;;2.60;;
78224;SDS011;67498;53.650;10.090;2023-07-28T01:07:04;9.20;;;1.90;;
78224;SDS011;67498;53.650;10.090;2023-07-28T01:12:47;6.00;;;2.22;;
78224;SDS011;67498;53.650;10.090;2023-07-28T01:15:12;5.23;;;2.10;;
78224;SDS011;67498;53.650;10.090;2023-07-28T01:17:40;6.05;;;2.15;;
78224;SDS011;67498;53.650;10.090;2023-07-28T01:20:06;7.95;;;2.10;;
78224;SDS011;67498;53.650;10.090;2023-07-28T01:25:08;6.63;;;1.90;;
78224;SDS011;67498;53.650;10.090;2023-07-28T01:27:37;6.25;;;2.10;;
78224;SDS011;67498;53.650;10.090;2023-07-28T01:30:03;5.95;;;1.83;;
78224;SDS011;67498;53.650;10.090;2023-07-28T01:32:28;6.77;;;2.13;;
78224;SDS011;67498;53.650;10.090;2023-07-28T01:34:53;5.43;;;2.03;;
78224;SDS011;67498;53.650;10.090;2023-07-28T01:37:19;5.75;;;2.22;;
78224;SDS011;67498;53.650;10.090;2023-07-28T01:39:44;6.27;;;2.07;;
78224;SDS011;67498;53.650;10.090;2023-07-28T01:42:09;5.20;;;1.90;;
78224;SDS011;67498;53.650;10.090;2023-07-28T01:44:35;5.73;;;2.00;;
78224;SDS011;67498;53.650;10.090;2023-07-28T01:47:00;6.17;;;2.07;;
78224;SDS011;67498;53.650;10.090;2023-07-28T01:49:25;7.53;;;2.40;;
78224;SDS011;67498;53.650;10.090;2023-07-28T01:51:50;6.20;;;2.30;;
78224;SDS011;67498;53.650;10.090;2023-07-28T01:54:16;5.47;;;2.13;;
78224;SDS011;67498;53.650;10.090;2023-07-28T01:56:41;6.17;;;2.37;;
78224;SDS011;67498;53.650;10.090;2023-07-28T01:59:06;5.67;;;2.13;;
78224;SDS011;67498;53.650;10.090;2023-07-28T02:01:31;8.17;;;2.20;;
78224;SDS011;67498;53.650;10.090;2023-07-28T02:03:57;5.90;;;2.30;;
78224;SDS011;67498;53.650;10.090;2023-07-28T02:06:22;4.80;;;1.80;;
78224;SDS011;67498;53.650;10.090;2023-07-28T02:08:47;7.22;;;2.55;;
78224;SDS011;67498;53.650;10.090;2023-07-28T02:11:13;5.60;;;2.20;;
78224;SDS011;67498;53.650;10.090;2023-07-28T02:13:38;5.63;;;2.33;;
78224;SDS011;67498;53.650;10.090;2023-07-28T02:16:03;6.57;;;2.00;;
78224;SDS011;67498;53.650;10.090;2023-07-28T02:18:29;6.83;;;2.63;;
78224;SDS011;67498;53.650;10.090;2023-07-28T02:20:54;8.03;;;2.10;;
78224;SDS011;67498;53.650;10.090;2023-07-28T02:23:19;8.67;;;2.50;;
78224;SDS011;67498;53.650;10.090;2023-07-28T02:25:44;6.50;;;2.03;;
78224;SDS011;67498;53.650;10.090;2023-07-28T02:28:10;6.68;;;2.47;;
78224;SDS011;67498;53.650;10.090;2023-07-28T02:30:36;6.47;;;2.80;;
78224;SDS011;67498;53.650;10.090;2023-07-28T02:33:02;6.03;;;2.40;;
78224;SDS011;67498;53.650;10.090;2023-07-28T02:35:27;5.33;;;2.00;;
78224;SDS011;67498;53.650;10.090;2023-07-28T02:37:53;5.67;;;2.20;;
78224;SDS011;67498;53.650;10.090;2023-07-28T02:40:18;4.63;;;1.70;;
78224;SDS011;67498;53.650;10.090;2023-07-28T02:42:43;5.70;;;2.10;;
78224;SDS011;67498;53.650;10.090;2023-07-28T02:45:09;6.87;;;2.30;;
78224;SDS011;67498;53.650;10.090;2023-07-28T02:47:35;5.53;;;2.03;;
78224;SDS011;67498;53.650;10.090;2023-07-28T02:50:00;6.78;;;2.42;;
78224;SDS011;67498;53.650;10.090;2023-07-28T02:52:25;6.30;;;2.10;;
78224;SDS011;67498;53.650;10.090;2023-07-28T02:54:51;6.63;;;2.03;;
78224;SDS011;67498;53.650;10.090;2023-07-28T02:57:16;4.57;;;1.57;;
78224;SDS011;67498;53.650;10.090;2023-07-28T02:59:41;4.93;;;1.83;;
78224;SDS011;67498;53.650;10.090;2023-07-28T03:02:07;4.93;;;1.83;;
78224;SDS011;67498;53.650;10.090;2023-07-28T03:04:32;5.10;;;1.83;;
78224;SDS011;67498;53.650;10.090;2023-07-28T03:06:57;5.22;;;1.70;;
78224;SDS011;67498;53.650;10.090;2023-07-28T03:09:22;5.53;;;2.00;;
78224;SDS011;67498;53.650;10.090;2023-07-28T03:11:48;4.57;;;1.40;;
78224;SDS011;67498;53.650;10.090;2023-07-28T03:14:13;4.27;;;1.40;;
78224;SDS011;67498;53.650;10.090;2023-07-28T03:16:39;4.63;;;1.30;;
78224;SDS011;67498;53.650;10.090;2023-07-28T03:19:04;4.70;;;1.40;;
78224;SDS011;67498;53.650;10.090;2023-07-28T03:21:30;6.63;;;1.40;;
78224;SDS011;67498;53.650;10.090;2023-07-28T03:23:56;4.13;;;1.10;;
78224;SDS011;67498;53.650;10.090;2023-07-28T03:26:21;4.43;;;1.40;;
78224;SDS011;67498;53.650;10.090;2023-07-28T03:28:47;4.50;;;1.30;;
78224;SDS011;67498;53.650;10.090;2023-07-28T03:31:12;4.27;;;1.63;;
78224;SDS011;67498;53.650;10.090;2023-07-28T03:33:37;4.33;;;1.40;;
78224;SDS011;67498;53.650;10.090;2023-07-28T03:36:02;4.97;;;1.40;;
78224;SDS011;67498;53.650;10.090;2023-07-28T03:38:28;5.37;;;1.40;;
78224;SDS011;67498;53.650;10.090;2023-07-28T03:40:53;4.10;;;1.20;;
78224;SDS011;67498;53.650;10.090;2023-07-28T03:43:19;4.33;;;1.40;;
78224;SDS011;67498;53.650;10.090;2023-07-28T03:45:45;5.65;;;1.15;;
78224;SDS011;67498;53.650;10.090;2023-07-28T03:48:10;11.23;;;1.63;;
78224;SDS011;67498;53.650;10.090;2023-07-28T03:50:35;4.30;;;1.23;;
78224;SDS011;67498;53.650;10.090;2023-07-28T03:53:01;4.13;;;1.10;;
78224;SDS011;67498;53.650;10.090;2023-07-28T03:55:26;5.90;;;1.80;;
78224;SDS011;67498;53.650;10.090;2023-07-28T03:57:51;4.50;;;1.70;;
78224;SDS011;67498;53.650;10.090;2023-07-28T04:00:16;5.50;;;1.77;;
78224;SDS011;67498;53.650;10.090;2023-07-28T04:02:42;4.53;;;1.43;;
78224;SDS011;67498;53.650;10.090;2023-07-28T04:05:07;4.83;;;1.50;;
78224;SDS011;67498;53.650;10.090;2023-07-28T04:07:33;5.03;;;1.90;;
78224;SDS011;67498;53.650;10.090;2023-07-28T04:09:58;5.10;;;1.73;;
78224;SDS011;67498;53.650;10.090;2023-07-28T04:12:23;7.17;;;1.93;;
78224;SDS011;67498;53.650;10.090;2023-07-28T04:14:48;5.23;;;1.70;;
78224;SDS011;67498;53.650;10.090;2023-07-28T04:17:14;4.40;;;1.50;;
78224;SDS011;67498;53.650;10.090;2023-07-28T04:19:39;5.03;;;1.57;;
78224;SDS011;67498;53.650;10.090;2023-07-28T04:22:04;5.73;;;1.60;;
78224;SDS011;67498;53.650;10.090;2023-07-28T04:24:30;5.27;;;2.13;;
78224;SDS011;67498;53.650;10.090;2023-07-28T04:26:55;4.93;;;2.00;;
78224;SDS011;67498;53.650;10.090;2023-07-28T04:29:21;5.37;;;1.80;;
78224;SDS011;67498;53.650;10.090;2023-07-28T04:31:46;4.30;;;1.57;;
78224;SDS011;67498;53.650;10.090;2023-07-28T04:34:11;5.90;;;1.97;;
78224;SDS011;67498;53.650;10.090;2023-07-28T04:36:36;5.77;;;1.83;;
78224;SDS011;67498;53.650;10.090;2023-07-28T04:39:02;4.70;;;1.57;;
78224;SDS011;67498;53.650;10.090;2023-07-28T04:41:27;5.10;;;1.80;;
78224;SDS011;67498;53.650;10.090;2023-07-28T04:43:52;4.83;;;1.80;;
78224;SDS011;67498;53.650;10.090;2023-07-28T04:46:18;5.43;;;1.90;;
78224;SDS011;67498;53.650;10.090;2023-07-28T04:48:43;4.87;;;1.80;;
78224;SDS011;67498;53.650;10.090;2023-07-28T04:51:08;6.20;;;2.33;;
78224;SDS011;67498;53.650;10.090;2023-07-28T04:53:34;5.63;;;2.03;;
78224;SDS011;67498;53.650;10.090;2023-07-28T04:55:59;5.57;;;2.07;;
78224;SDS011;67498;53.650;10.090;2023-07-28T04:58:24;5.67;;;2.03;;
78224;SDS011;67498;53.650;10.090;2023-07-28T05:00:49;5.37;;;2.20;;
78224;SDS011;67498;53.650;10.090;2023-07-28T05:03:15;7.20;;;2.80;;
78224;SDS011;67498;53.650;10.090;2023-07-28T05:05:42;6.27;;;2.50;;
78224;SDS011;67498;53.650;10.090;2023-07-28T05:08:09;5.82;;;2.20;;
78224;SDS011;67498;53.650;10.090;2023-07-28T05:10:34;6.00;;;2.03;;
78224;SDS011;67498;53.650;10.090;2023-07-28T05:12:59;5.30;;;2.00;;
78224;SDS011;67498;53.650;10.090;2023-07-28T05:15:24;5.20;;;1.93;;
78224;SDS011;67498;53.650;10.090;2023-07-28T05:17:50;6.57;;;2.33;;
78224;SDS011;67498;53.650;10.090;2023-07-28T05:20:15;6.13;;;1.93;;
78224;SDS011;67498;53.650;10.090;2023-07-28T05:22:41;8.40;;;2.15;;
78224;SDS011;67498;53.650;10.090;2023-07-28T05:25:06;7.10;;;2.13;;
78224;SDS011;67498;53.650;10.090;2023-07-28T05:27:32;8.05;;;2.30;;
78224;SDS011;67498;53.650;10.090;2023-07-28T05:29:57;8.07;;;2.97;;
78224;SDS011;67498;53.650;10.090;2023-07-28T05:32:22;7.43;;;2.30;;
78224;SDS011;67498;53.650;10.090;2023-07-28T05:34:48;6.53;;;2.80;;
78224;SDS011;67498;53.650;10.090;2023-07-28T05:37:13;9.23;;;2.87;;
78224;SDS011;67498;53.650;10.090;2023-07-28T05:39:38;8.40;;;2.70;;
78224;SDS011;67498;53.650;10.090;2023-07-28T05:42:04;4.90;;;2.00;;
78224;SDS011;67498;53.650;10.090;2023-07-28T05:44:29;5.53;;;2.17;;
78224;SDS011;67498;53.650;10.090;2023-07-28T05:46:54;5.47;;;2.07;;
78224;SDS011;67498;53.650;10.090;2023-07-28T05:49:19;6.60;;;2.40;;
78224;SDS011;67498;53.650;10.090;2023-07-28T05:51:45;6.33;;;2.40;;
78224;SDS011;67498;53.650;10.090;2023-07-28T05:54:11;5.73;;;2.30;;
78224;SDS011;67498;53.650;10.090;2023-07-28T05:56:39;5.70;;;2.08;;
78224;SDS011;67498;53.650;10.090;2023-07-28T05:59:04;7.40;;;2.80;;
78224;SDS011;67498;53.650;10.090;2023-07-28T06:01:30;6.87;;;2.53;;
78224;SDS011;67498;53.650;10.090;2023-07-28T06:03:56;6.97;;;2.53;;
78224;SDS011;67498;53.650;10.090;2023-07-28T06:06:24;5.15;;;1.90;;
78224;SDS011;67498;53.650;10.090;2023-07-28T06:08:52;6.03;;;2.38;;
78224;SDS011;67498;53.650;10.090;2023-07-28T06:11:17;6.33;;;2.20;;
78224;SDS011;67498;53.650;10.090;2023-07-28T06:13:43;6.43;;;2.57;;
78224;SDS011;67498;53.650;10.090;2023-07-28T06:16:08;5.03;;;2.00;;
78224;SDS011;67498;53.650;10.090;2023-07-28T06:18:34;5.07;;;1.90;;
78224;SDS011;67498;53.650;10.090;2023-07-28T06:20:59;5.53;;;2.33;;
78224;SDS011;67498;53.650;10.090;2023-07-28T06:23:24;7.33;;;2.63;;
78224;SDS011;67498;53.650;10.090;2023-07-28T06:25:49;5.73;;;2.00;;
78224;SDS011;67498;53.650;10.090;2023-07-28T06:28:15;6.80;;;2.30;;
78224;SDS011;67498;53.650;10.090;2023-07-28T06:30:40;5.88;;;2.20;;
78224;SDS011;67498;53.650;10.090;2023-07-28T06:33:06;5.93;;;2.50;;
78224;SDS011;67498;53.650;10.090;2023-07-28T06:35:31;7.60;;;2.80;;
78224;SDS011;67498;53.650;10.090;2023-07-28T06:37:57;6.82;;;2.30;;
78224;SDS011;67498;53.650;10.090;2023-07-28T06:40:22;5.77;;;2.23;;
78224;SDS011;67498;53.650;10.090;2023-07-28T06:42:47;5.63;;;1.90;;
78224;SDS011;67498;53.650;10.090;2023-07-28T06:45:13;5.37;;;2.23;;
78224;SDS011;67498;53.650;10.090;2023-07-28T06:47:39;7.03;;;2.53;;
78224;SDS011;67498;53.650;10.090;2023-07-28T06:50:04;8.50;;;2.07;;
78224;SDS011;67498;53.650;10.090;2023-07-28T06:52:30;5.28;;;1.95;;
78224;SDS011;67498;53.650;10.090;2023-07-28T06:54:56;4.50;;;1.80;;
78224;SDS011;67498;53.650;10.090;2023-07-28T06:57:21;4.77;;;1.60;;
78224;SDS011;67498;53.650;10.090;2023-07-28T06:59:46;5.33;;;1.60;;
78224;SDS011;67498;53.650;10.090;2023-07-28T07:02:12;4.40;;;1.65;;
78224;SDS011;67498;53.650;10.090;2023-07-28T07:04:37;5.93;;;1.80;;
78224;SDS011;67498;53.650;10.090;2023-07-28T07:07:03;8.73;;;2.20;;
78224;SDS011;67498;53.650;10.090;2023-07-28T07:09:28;5.57;;;2.13;;
78224;SDS011;67498;53.650;10.090;2023-07-28T07:11:54;5.07;;;1.80;;
78224;SDS011;67498;53.650;10.090;2023-07-28T07:14:19;5.30;;;1.90;;
78224;SDS011;67498;53.650;10.090;2023-07-28T07:16:45;5.30;;;2.03;;
78224;SDS011;67498;53.650;10.090;2023-07-28T07:19:10;5.33;;;1.97;;
78224;SDS011;67498;53.650;10.090;2023-07-28T07:21:35;9.77;;;2.07;;
78224;SDS011;67498;53.650;10.090;2023-07-28T07:24:02;4.55;;;1.58;;
78224;SDS011;67498;53.650;10.090;2023-07-28T07:26:28;4.70;;;1.50;;
78224;SDS011;67498;53.650;10.090;2023-07-28T07:28:53;5.07;;;1.50;;
78224;SDS011;67498;53.650;10.090;2023-07-28T07:31:18;3.83;;;1.05;;
78224;SDS011;67498;53.650;10.090;2023-07-28T07:33:44;3.30;;;1.00;;
78224;SDS011;67498;53.650;10.090;2023-07-28T07:36:12;3.87;;;1.30;;
78224;SDS011;67498;53.650;10.090;2023-07-28T07:38:41;3.65;;;1.15;;
78224;SDS011;67498;53.650;10.090;2023-07-28T07:41:07;4.10;;;1.40;;
78224;SDS011;67498;53.650;10.090;2023-07-28T07:43:33;3.83;;;1.30;;
78224;SDS011;67498;53.650;10.090;2023-07-28T07:45:59;8.43;;;1.70;;
78224;SDS011;67498;53.650;10.090;2023-07-28T07:48:24;4.60;;;1.53;;
78224;SDS011;67498;53.650;10.090;2023-07-28T07:50:50;4.63;;;1.37;;
78224;SDS011;67498;53.650;10.090;2023-07-28T07:53:16;5.05;;;1.55;;
78224;SDS011;67498;53.650;10.090;2023-07-28T07:55:41;4.53;;;1.63;;
78224;SDS011;67498;53.650;10.090;2023-07-28T07:58:06;4.80;;;1.60;;
78224;SDS011;67498;53.650;10.090;2023-07-28T08:00:32;5.30;;;2.07;;
78224;SDS011;67498;53.650;10.090;2023-07-28T08:02:57;4.23;;;1.60;;
78224;SDS011;67498;53.650;10.090;2023-07-28T08:05:22;4.40;;;1.40;;
78224;SDS011;67498;53.650;10.090;2023-07-28T08:07:47;3.97;;;1.10;;
78224;SDS011;67498;53.650;10.090;2023-07-28T08:10:13;4.70;;;1.50;;
78224;SDS011;67498;53.650;10.090;2023-07-28T08:12:38;5.43;;;1.80;;
78224;SDS011;67498;53.650;10.090;2023-07-28T08:15:04;3.83;;;1.37;;
78224;SDS011;67498;53.650;10.090;2023-07-28T08:17:29;3.97;;;1.30;;
78224;SDS011;67498;53.650;10.090;2023-07-28T08:19:55;3.70;;;1.20;;
78224;SDS011;67498;53.650;10.090;2023-07-28T08:22:20;4.53;;;1.20;;
78224;SDS011;67498;53.650;10.090;2023-07-28T08:24:45;4.03;;;1.20;;
78224;SDS011;67498;53.650;10.090;2023-07-28T08:27:10;3.97;;;1.37;;
78224;SDS011;67498;53.650;10.090;2023-07-28T08:29:36;8.17;;;3.20;;
78224;SDS011;67498;53.650;10.090;2023-07-28T08:32:01;3.67;;;1.20;;
78224;SDS011;67498;53.650;10.090;2023-07-28T08:34:27;4.80;;;1.50;;
78224;SDS011;67498;53.650;10.090;2023-07-28T08:36:52;5.00;;;1.50;;
78224;SDS011;67498;53.650;10.090;2023-07-28T08:39:17;4.37;;;1.50;;
78224;SDS011;67498;53.650;10.090;2023-07-28T08:41:43;4.20;;;1.33;;
78224;SDS011;67498;53.650;10.090;2023-07-28T08:44:08;4.32;;;1.42;;
78224;SDS011;67498;53.650;10.090;2023-07-28T08:46:33;4.70;;;1.60;;
78224;SDS011;67498;53.650;10.090;2023-07-28T08:49:02;4.33;;;1.20;;
78224;SDS011;67498;53.650;10.090;2023-07-28T08:51:27;4.00;;;1.35;;
78224;SDS011;67498;53.650;10.090;2023-07-28T08:53:53;3.93;;;1.20;;
78224;SDS011;67498;53.650;10.090;2023-07-28T08:56:18;4.13;;;1.50;;
78224;SDS011;67498;53.650;10.090;2023-07-28T08:58:45;3.78;;;1.38;;
78224;SDS011;67498;53.650;10.090;2023-07-28T09:01:10;4.43;;;1.67;;
78224;SDS011;67498;53.650;10.090;2023-07-28T09:03:38;3.80;;;1.10;;
78224;SDS011;67498;53.650;10.090;2023-07-28T09:06:06;4.10;;;1.20;;
78224;SDS011;67498;53.650;10.090;2023-07-28T09:08:34;4.03;;;1.30;;
78224;SDS011;67498;53.650;10.090;2023-07-28T09:11:04;4.18;;;1.45;;
78224;SDS011;67498;53.650;10.090;2023-07-28T09:13:39;4.22;;;1.50;;
78224;SDS011;67498;53.650;10.090;2023-07-28T09:16:17;3.88;;;1.23;;
78224;SDS011;67498;53.650;10.090;2023-07-28T09:18:43;4.23;;;1.17;;
78224;SDS011;67498;53.650;10.090;2023-07-28T09:21:19;4.25;;;1.50;;
78224;SDS011;67498;53.650;10.090;2023-07-28T09:23:46;5.10;;;1.43;;
78224;SDS011;67498;53.650;10.090;2023-07-28T09:26:12;4.55;;;1.02;;
78224;SDS011;67498;53.650;10.090;2023-07-28T09:28:39;4.18;;;1.20;;
78224;SDS011;67498;53.650;10.090;2023-07-28T09:31:05;5.25;;;1.52;;
78224;SDS011;67498;53.650;10.090;2023-07-28T09:33:31;3.77;;;1.40;;
78224;SDS011;67498;53.650;10.090;2023-07-28T09:36:06;4.40;;;1.53;;
78224;SDS011;67498;53.650;10.090;2023-07-28T09:38:33;3.55;;;1.23;;
78224;SDS011;67498;53.650;10.090;2023-07-28T09:41:02;4.18;;;1.30;;
78224;SDS011;67498;53.650;10.090;2023-07-28T09:43:30;3.88;;;1.30;;
78224;SDS011;67498;53.650;10.090;2023-07-28T09:45:56;3.57;;;1.27;;
78224;SDS011;67498;53.650;10.090;2023-07-28T09:48:21;3.70;;;1.17;;
78224;SDS011;67498;53.650;10.090;2023-07-28T09:50:49;4.80;;;1.00;;
78224;SDS011;67498;53.650;10.090;2023-07-28T09:53:14;3.67;;;1.30;;
78224;SDS011;67498;53.650;10.090;2023-07-28T09:55:41;5.18;;;1.75;;
78224;SDS011;67498;53.650;10.090;2023-07-28T09:58:08;4.05;;;1.50;;
78224;SDS011;67498;53.650;10.090;2023-07-28T10:00:35;3.90;;;1.27;;
78224;SDS011;67498;53.650;10.090;2023-07-28T10:03:01;3.40;;;1.10;;
78224;SDS011;67498;53.650;10.090;2023-07-28T10:05:27;5.13;;;1.17;;
78224;SDS011;67498;53.650;10.090;2023-07-28T10:07:54;5.10;;;1.48;;
78224;SDS011;67498;53.650;10.090;2023-07-28T10:10:19;4.10;;;1.30;;
78224;SDS011;67498;53.650;10.090;2023-07-28T10:12:51;3.63;;;1.10;;
78224;SDS011;67498;53.650;10.090;2023-07-28T10:15:18;4.15;;;1.30;;
78224;SDS011;67498;53.650;10.090;2023-07-28T10:17:50;4.80;;;1.30;;
78224;SDS011;67498;53.650;10.090;2023-07-28T10:20:38;3.78;;;1.05;;
78224;SDS011;67498;53.650;10.090;2023-07-28T10:23:05;4.32;;;1.27;;
78224;SDS011;67498;53.650;10.090;2023-07-28T10:25:40;4.15;;;1.27;;
78224;SDS011;67498;53.650;10.090;2023-07-28T10:28:07;3.08;;;0.88;;
78224;SDS011;67498;53.650;10.090;2023-07-28T10:30:51;4.13;;;1.10;;
78224;SDS011;67498;53.650;10.090;2023-07-28T10:33:28;3.92;;;1.00;;
78224;SDS011;67498;53.650;10.090;2023-07-28T10:35:54;3.70;;;1.08;;
78224;SDS011;67498;53.650;10.090;2023-07-28T10:38:32;4.03;;;1.00;;
78224;SDS011;67498;53.650;10.090;2023-07-28T10:43:32;4.50;;;1.58;;
78224;SDS011;67498;53.650;10.090;2023-07-28T10:45:57;3.67;;;1.20;;
78224;SDS011;67498;53.650;10.090;2023-07-28T10:48:23;3.33;;;1.07;;
78224;SDS011;67498;53.650;10.090;2023-07-28T10:50:49;3.40;;;0.97;;
78224;SDS011;67498;53.650;10.090;2023-07-28T10:53:15;2.90;;;0.80;;
78224;SDS011;67498;53.650;10.090;2023-07-28T10:55:40;3.78;;;1.00;;
78224;SDS011;67498;53.650;10.090;2023-07-28T10:58:06;5.93;;;1.10;;
78224;SDS011;67498;53.650;10.090;2023-07-28T11:00:31;3.77;;;0.83;;
78224;SDS011;67498;53.650;10.090;2023-07-28T11:02:56;3.60;;;1.10;;
78224;SDS011;67498;53.650;10.090;2023-07-28T11:07:55;3.35;;;0.93;;
78224;SDS011;67498;53.650;10.090;2023-07-28T11:10:21;3.30;;;1.00;;
78224;SDS011;67498;53.650;10.090;2023-07-28T11:12:47;3.73;;;1.10;;
78224;SDS011;67498;53.650;10.090;2023-07-28T11:15:15;4.05;;;1.05;;
78224;SDS011;67498;53.650;10.090;2023-07-28T11:17:41;3.53;;;1.02;;
78224;SDS011;67498;53.650;10.090;2023-07-28T11:20:17;3.77;;;1.00;;
78224;SDS011;67498;53.650;10.090;2023-07-28T11:22:44;3.47;;;0.95;;
78224;SDS011;67498;53.650;10.090;2023-07-28T11:25:10;5.07;;;1.10;;
78224;SDS011;67498;53.650;10.090;2023-07-28T11:27:37;3.47;;;1.00;;
78224;SDS011;67498;53.650;10.090;2023-07-28T11:30:03;3.13;;;0.90;;
78224;SDS011;67498;53.650;10.090;2023-07-28T11:32:30;4.00;;;1.10;;
78224;SDS011;67498;53.650;10.090;2023-07-28T11:35:02;4.45;;;1.13;;
78224;SDS011;67498;53.650;10.090;2023-07-28T11:37:28;3.20;;;1.00;;
78224;SDS011;67498;53.650;10.090;2023-07-28T11:39:55;3.77;;;1.20;;
78224;SDS011;67498;53.650;10.090;2023-07-28T11:42:21;4.32;;;1.17;;
78224;SDS011;67498;53.650;10.090;2023-07-28T11:44:47;4.00;;;1.10;;
78224;SDS011;67498;53.650;10.090;2023-07-28T11:47:16;4.07;;;1.20;;
78224;SDS011;67498;53.650;10.090;2023-07-28T11:49:47;3.15;;;0.90;;
78224;SDS011;67498;53.650;10.090;2023-07-28T11:52:16;3.72;;;1.10;;
78224;SDS011;67498;53.650;10.090;2023-07-28T11:54:41;4.43;;;0.90;;
78224;SDS011;67498;53.650;10.090;2023-07-28T11:57:08;3.88;;;1.20;;
78224;SDS011;67498;53.650;10.090;2023-07-28T11:59:34;3.10;;;0.90;;
78224;SDS011;67498;53.650;10.090;2023-07-28T12:02:00;3.40;;;0.87;;
78224;SDS011;67498;53.650;10.090;2023-07-28T12:04:31;3.70;;;1.10;;
78224;SDS011;67498;53.650;10.090;2023-07-28T12:09:51;4.43;;;1.15;;
78224;SDS011;67498;53.650;10.090;2023-07-28T12:12:17;3.28;;;0.80;;
78224;SDS011;67498;53.650;10.090;2023-07-28T12:14:44;3.20;;;1.00;;
78224;SDS011;67498;53.650;10.090;2023-07-28T12:17:19;3.28;;;0.90;;
78224;SDS011;67498;53.650;10.090;2023-07-28T12:19:59;3.35;;;0.90;;
78224;SDS011;67498;53.650;10.090;2023-07-28T12:22:27;3.72;;;1.00;;
78224;SDS011;67498;53.650;10.090;2023-07-28T12:24:53;3.35;;;1.10;;
78224;SDS011;67498;53.650;10.090;2023-07-28T12:27:19;3.67;;;1.37;;
78224;SDS011;67498;53.650;10.090;2023-07-28T12:29:48;4.47;;;1.20;;
78224;SDS011;67498;53.650;10.090;2023-07-28T12:32:14;3.58;;;1.00;;
78224;SDS011;67498;53.650;10.090;2023-07-28T12:34:39;4.50;;;1.00;;
78224;SDS011;67498;53.650;10.090;2023-07-28T12:37:05;4.13;;;1.10;;
78224;SDS011;67498;53.650;10.090;2023-07-28T12:39:31;3.50;;;1.10;;
78224;SDS011;67498;53.650;10.090;2023-07-28T12:41:56;4.70;;;1.20;;
78224;SDS011;67498;53.650;10.090;2023-07-28T12:44:21;3.63;;;1.10;;
78224;SDS011;67498;53.650;10.090;2023-07-28T12:46:47;3.83;;;1.33;;
78224;SDS011;67498;53.650;10.090;2023-07-28T12:49:12;3.80;;;1.17;;
78224;SDS011;67498;53.650;10.090;2023-07-28T12:51:39;3.70;;;1.20;;
78224;SDS011;67498;53.650;10.090;2023-07-28T12:54:05;3.33;;;1.03;;
78224;SDS011;67498;53.650;10.090;2023-07-28T12:56:30;3.10;;;0.93;;
78224;SDS011;67498;53.650;10.090;2023-07-28T12:58:55;3.40;;;1.00;;
78224;SDS011;67498;53.650;10.090;2023-07-28T13:01:20;3.80;;;1.10;;
78224;SDS011;67498;53.650;10.090;2023-07-28T13:03:46;3.10;;;0.80;;
78224;SDS011;67498;53.650;10.090;2023-07-28T13:06:11;3.40;;;1.00;;
78224;SDS011;67498;53.650;10.090;2023-07-28T13:08:36;6.40;;;1.97;;
78224;SDS011;67498;53.650;10.090;2023-07-28T13:11:01;5.73;;;1.97;;
78224;SDS011;67498;53.650;10.090;2023-07-28T13:13:27;3.73;;;1.13;;
78224;SDS011;67498;53.650;10.090;2023-07-28T13:15:54;3.28;;;0.82;;
78224;SDS011;67498;53.650;10.090;2023-07-28T13:18:20;3.23;;;0.87;;
78224;SDS011;67498;53.650;10.090;2023-07-28T13:20:45;6.30;;;1.20;;
78224;SDS011;67498;53.650;10.090;2023-07-28T13:23:10;3.60;;;0.90;;
78224;SDS011;67498;53.650;10.090;2023-07-28T13:25:35;3.47;;;1.00;;
78224;SDS011;67498;53.650;10.090;2023-07-28T13:28:01;3.42;;;1.00;;
78224;SDS011;67498;53.650;10.090;2023-07-28T13:30:26;4.60;;;0.97;;
78224;SDS011;67498;53.650;10.090;2023-07-28T13:32:51;3.40;;;0.70;;
78224;SDS011;67498;53.650;10.090;2023-07-28T13:35:16;3.00;;;0.80;;
78224;SDS011;67498;53.650;10.090;2023-07-28T13:37:42;3.30;;;0.90;;
78224;SDS011;67498;53.650;10.090;2023-07-28T13:40:08;2.83;;;0.70;;
78224;SDS011;67498;53.650;10.090;2023-07-28T13:42:33;3.60;;;1.00;;
78224;SDS011;67498;53.650;10.090;2023-07-28T13:44:58;2.80;;;0.70;;
78224;SDS011;67498;53.650;10.090;2023-07-28T13:47:23;3.17;;;0.80;;
78224;SDS011;67498;53.650;10.090;2023-07-28T13:49:49;2.97;;;0.80;;
78224;SDS011;67498;53.650;10.090;2023-07-28T13:52:14;3.27;;;1.00;;
78224;SDS011;67498;53.650;10.090;2023-07-28T13:54:39;3.23;;;0.80;;
78224;SDS011;67498;53.650;10.090;2023-07-28T13:57:05;2.80;;;0.70;;
78224;SDS011;67498;53.650;10.090;2023-07-28T13:59:30;3.88;;;1.20;;
78224;SDS011;67498;53.650;10.090;2023-07-28T14:01:56;3.37;;;0.80;;
78224;SDS011;67498;53.650;10.090;2023-07-28T14:04:22;3.30;;;0.90;;
78224;SDS011;67498;53.650;10.090;2023-07-28T14:06:48;2.80;;;0.80;;
78224;SDS011;67498;53.650;10.090;2023-07-28T14:09:13;2.70;;;0.60;;
78224;SDS011;67498;53.650;10.090;2023-07-28T14:11:38;2.67;;;0.70;;
78224;SDS011;67498;53.650;10.090;2023-07-28T14:14:03;3.33;;;0.60;;
78224;SDS011;67498;53.650;10.090;2023-07-28T14:16:29;2.87;;;0.67;;
78224;SDS011;67498;53.650;10.090;2023-07-28T14:18:55;2.60;;;0.65;;
78224;SDS011;67498;53.650;10.090;2023-07-28T14:21:20;2.93;;;0.70;;
78224;SDS011;67498;53.650;10.090;2023-07-28T14:23:45;3.10;;;0.80;;
78224;SDS011;67498;53.650;10.090;2023-07-28T14:26:10;2.93;;;0.70;;
78224;SDS011;67498;53.650;10.090;2023-07-28T14:28:36;2.47;;;0.50;;
78224;SDS011;67498;53.650;10.090;2023-07-28T14:31:01;2.83;;;0.70;;
78224;SDS011;67498;53.650;10.090;2023-07-28T14:33:26;2.87;;;0.60;;
78224;SDS011;67498;53.650;10.090;2023-07-28T14:35:51;2.73;;;0.80;;
78224;SDS011;67498;53.650;10.090;2023-07-28T14:38:17;2.80;;;0.88;;
78224;SDS011;67498;53.650;10.090;2023-07-28T14:40:42;2.60;;;0.70;;